createdAt,value
2023-05-01T00:00:51.162Z,8.83
2023-05-01T00:03:24.215Z,8.71
2023-05-01T00:05:54.445Z,8.75
2023-05-01T00:08:34.289Z,8.70
2023-05-01T00:11:06.353Z,8.67
2023-05-01T00:13:36.423Z,8.62
2023-05-01T00:16:12.027Z,8.43
2023-05-01T00:18:45.089Z,8.46
2023-05-01T00:21:15.415Z,8.49
2023-05-01T00:23:48.282Z,8.22
2023-05-01T00:26:18.600Z,8.37
2023-05-01T00:28:51.152Z,8.36
2023-05-01T00:31:21.938Z,8.32
2023-05-01T00:33:52.015Z,8.30
2023-05-01T00:36:22.424Z,8.10
2023-05-01T00:38:55.281Z,8.25
2023-05-01T00:41:25.585Z,8.22
2023-05-01T00:43:56.351Z,8.23
2023-05-01T00:46:27.243Z,8.16
2023-05-01T00:49:01.644Z,8.14
2023-05-01T00:51:34.608Z,8.10
2023-05-01T00:54:08.931Z,8.10
2023-05-01T00:56:40.176Z,8.10
2023-05-01T00:59:10.288Z,8.12
2023-05-01T01:01:40.430Z,8.12
2023-05-01T01:04:10.811Z,8.10
2023-05-01T01:06:50.457Z,8.10
2023-05-01T01:09:34.869Z,8.07
2023-05-01T01:12:24.992Z,8.05
2023-05-01T01:15:02.068Z,7.99
2023-05-01T01:17:38.134Z,8.03
2023-05-01T01:20:35.049Z,8.01
2023-05-01T01:23:30.667Z,8.00
2023-05-01T01:26:29.510Z,7.98
2023-05-01T01:29:43.592Z,7.95
2023-05-01T01:32:49.739Z,7.92
2023-05-01T01:35:26.648Z,7.90
2023-05-01T01:38:03.685Z,7.86
2023-05-01T01:40:40.038Z,7.85
2023-05-01T01:43:13.765Z,7.83
2023-05-01T01:45:45.200Z,7.80
2023-05-01T01:48:19.859Z,7.75
2023-05-01T01:51:01.934Z,7.77
2023-05-01T01:53:34.138Z,7.74
2023-05-01T01:56:06.678Z,7.70
2023-05-01T01:58:39.602Z,7.70
2023-05-01T02:01:12.477Z,7.71
2023-05-01T02:03:44.377Z,7.62
2023-05-01T02:06:19.054Z,7.59
2023-05-01T02:08:52.023Z,7.58
2023-05-01T02:11:25.756Z,7.33
2023-05-01T02:13:57.501Z,7.51
2023-05-01T02:16:30.209Z,7.47
2023-05-01T02:19:01.435Z,7.35
2023-05-01T02:21:38.596Z,7.44
2023-05-01T02:24:10.633Z,7.42
2023-05-01T02:26:48.065Z,7.31
2023-05-01T02:29:18.319Z,7.34
2023-05-01T02:31:48.526Z,7.34
2023-05-01T02:34:18.752Z,7.30
2023-05-01T02:36:51.474Z,7.27
2023-05-01T02:39:22.546Z,7.26
2023-05-01T02:41:55.228Z,7.24
2023-05-01T02:44:27.258Z,7.18
2023-05-01T02:47:00.252Z,7.17
2023-05-01T02:49:30.807Z,7.19
2023-05-01T02:52:04.764Z,7.15
2023-05-01T02:54:39.751Z,7.13
2023-05-01T02:57:10.898Z,7.00
2023-05-01T02:59:41.207Z,7.11
2023-05-01T03:02:13.787Z,7.14
2023-05-01T03:04:45.334Z,7.10
2023-05-01T03:07:20.273Z,7.09
2023-05-01T03:09:50.348Z,7.07
2023-05-01T03:12:21.078Z,7.06
2023-05-01T03:14:51.229Z,7.10
2023-05-01T03:17:21.349Z,7.11
2023-05-01T03:19:52.147Z,7.10
2023-05-01T03:22:26.786Z,7.12
2023-05-01T03:25:01.620Z,7.06
2023-05-01T03:27:31.856Z,7.05
2023-05-01T03:30:02.107Z,7.04
2023-05-01T03:32:35.357Z,7.02
2023-05-01T03:35:05.531Z,6.99
2023-05-01T03:37:38.241Z,7.02
2023-05-01T03:40:13.820Z,7.00
2023-05-01T03:43:12.711Z,7.01
2023-05-01T03:45:44.782Z,7.02
2023-05-01T03:48:15.351Z,7.00
2023-05-01T03:50:46.113Z,7.02
2023-05-01T03:53:23.874Z,7.03
2023-05-01T03:55:54.442Z,7.00
2023-05-01T03:58:26.048Z,6.96
2023-05-01T04:01:01.108Z,6.91
2023-05-01T04:03:31.416Z,6.77
2023-05-01T04:06:08.229Z,6.87
2023-05-01T04:08:48.797Z,6.88
2023-05-01T04:11:19.108Z,6.86
2023-05-01T04:13:49.303Z,6.88
2023-05-01T04:16:20.366Z,6.75
2023-05-01T04:18:51.129Z,6.86
2023-05-01T04:21:22.091Z,6.86
2023-05-01T04:23:57.283Z,6.89
2023-05-01T04:26:27.597Z,6.89
2023-05-01T04:28:57.935Z,6.89
2023-05-01T04:31:32.296Z,6.91
2023-05-01T04:34:02.611Z,6.89
2023-05-01T04:36:33.109Z,6.89
2023-05-01T04:39:06.700Z,6.91
2023-05-01T04:41:37.030Z,6.91
2023-05-01T04:44:08.967Z,6.92
2023-05-01T04:46:39.303Z,6.98
2023-05-01T04:49:09.712Z,7.03
2023-05-01T04:51:42.546Z,7.07
2023-05-01T04:54:21.523Z,7.11
2023-05-01T04:56:52.148Z,7.12
2023-05-01T04:59:22.506Z,7.16
2023-05-01T05:01:53.421Z,7.16
2023-05-01T05:04:23.747Z,7.18
2023-05-01T05:06:54.655Z,7.18
2023-05-01T05:09:35.208Z,7.20
2023-05-01T05:12:06.728Z,7.29
2023-05-01T05:14:36.975Z,7.33
2023-05-01T05:17:07.297Z,8.22
2023-05-01T05:19:38.427Z,9.07
2023-05-01T05:22:08.993Z,9.34
2023-05-01T05:25:04.355Z,9.91
2023-05-01T05:27:38.261Z,9.91
2023-05-01T05:30:09.612Z,9.96
2023-05-01T05:32:40.560Z,10.13
2023-05-01T05:35:12.532Z,10.50
2023-05-01T05:37:45.269Z,11.13
2023-05-01T05:40:19.751Z,11.60
2023-05-01T05:43:00.804Z,12.16
2023-05-01T05:45:36.491Z,12.48
2023-05-01T05:48:10.365Z,12.66
2023-05-01T05:50:43.684Z,12.91
2023-05-01T05:53:16.898Z,13.46
2023-05-01T05:55:50.409Z,13.69
2023-05-01T05:58:25.218Z,13.49
2023-05-01T06:00:56.201Z,13.24
2023-05-01T06:03:27.773Z,13.01
2023-05-01T06:06:02.493Z,12.98
2023-05-01T06:08:32.712Z,13.00
2023-05-01T06:11:05.608Z,12.95
2023-05-01T06:13:37.122Z,12.65
2023-05-01T06:16:08.954Z,12.45
2023-05-01T06:18:43.783Z,12.24
2023-05-01T06:21:15.786Z,11.82
2023-05-01T06:23:47.032Z,11.65
2023-05-01T06:26:31.891Z,11.46
2023-05-01T06:29:02.252Z,11.31
2023-05-01T06:31:32.827Z,11.11
2023-05-01T06:34:03.113Z,11.27
2023-05-01T06:36:47.478Z,11.42
2023-05-01T06:39:17.563Z,11.62
2023-05-01T06:41:52.029Z,11.74
2023-05-01T06:44:33.016Z,11.78
2023-05-01T06:47:05.034Z,11.78
2023-05-01T06:49:35.018Z,11.84
2023-05-01T06:52:07.553Z,11.79
2023-05-01T06:54:38.067Z,11.83
2023-05-01T06:57:10.845Z,11.91
2023-05-01T06:59:43.043Z,12.06
2023-05-01T07:02:13.066Z,12.36
2023-05-01T07:04:44.483Z,12.53
2023-05-01T07:07:14.642Z,12.52
2023-05-01T07:09:47.059Z,12.33
2023-05-01T07:12:19.612Z,12.39
2023-05-01T07:14:49.917Z,12.51
2023-05-01T07:17:20.201Z,12.69
2023-05-01T07:19:50.924Z,12.86
2023-05-01T07:22:21.669Z,12.88
2023-05-01T07:24:51.780Z,12.93
2023-05-01T07:27:24.976Z,12.92
2023-05-01T07:29:55.395Z,13.00
2023-05-01T07:32:25.797Z,12.96
2023-05-01T07:34:56.028Z,12.91
2023-05-01T07:37:27.220Z,12.90
2023-05-01T07:40:01.302Z,12.94
2023-05-01T07:42:34.668Z,13.04
2023-05-01T07:45:05.639Z,13.18
2023-05-01T07:47:35.676Z,13.23
2023-05-01T07:50:06.193Z,13.13
2023-05-01T07:52:36.852Z,13.14
2023-05-01T07:55:09.301Z,13.08
2023-05-01T07:57:42.087Z,13.12
2023-05-01T08:00:13.602Z,13.28
2023-05-01T08:02:43.912Z,13.38
2023-05-01T08:05:14.585Z,13.56
2023-05-01T08:07:45.206Z,13.58
2023-05-01T08:10:16.665Z,13.54
2023-05-01T08:12:50.145Z,13.86
2023-05-01T08:15:21.912Z,13.95
2023-05-01T08:17:52.339Z,14.05
2023-05-01T08:20:23.258Z,14.25
2023-05-01T08:22:53.350Z,14.40
2023-05-01T08:25:23.636Z,14.52
2023-05-01T08:27:56.814Z,14.36
2023-05-01T08:30:27.011Z,14.12
2023-05-01T08:32:57.380Z,14.16
2023-05-01T08:35:27.766Z,14.43
2023-05-01T08:37:58.245Z,14.58
2023-05-01T08:40:29.388Z,14.73
2023-05-01T08:43:04.125Z,14.79
2023-05-01T08:45:38.647Z,14.76
2023-05-01T08:48:10.448Z,14.77
2023-05-01T08:50:42.597Z,14.80
2023-05-01T08:53:16.750Z,14.75
2023-05-01T08:55:48.742Z,14.87
2023-05-01T08:58:22.526Z,14.95
2023-05-01T09:00:53.207Z,15.17
2023-05-01T09:03:24.473Z,15.36
2023-05-01T09:05:56.608Z,15.43
2023-05-01T09:08:27.799Z,15.53
2023-05-01T09:11:01.850Z,15.72
2023-05-01T09:13:34.536Z,15.70
2023-05-01T09:16:04.608Z,15.79
2023-05-01T09:18:38.606Z,15.86
2023-05-01T09:21:09.757Z,15.93
2023-05-01T09:23:40.991Z,15.94
2023-05-01T09:26:11.679Z,16.08
2023-05-01T09:28:52.154Z,16.03
2023-05-01T09:31:29.004Z,16.01
2023-05-01T09:34:00.810Z,16.15
2023-05-01T09:36:32.859Z,16.33
2023-05-01T09:39:06.837Z,16.31
2023-05-01T09:41:37.000Z,16.63
2023-05-01T09:44:21.829Z,16.75
2023-05-01T09:46:52.180Z,16.71
2023-05-01T09:49:22.323Z,16.95
2023-05-01T09:51:54.140Z,16.86
2023-05-01T09:54:24.317Z,16.77
2023-05-01T09:56:54.683Z,16.66
2023-05-01T09:59:31.321Z,16.40
2023-05-01T10:02:02.478Z,16.66
2023-05-01T10:04:36.533Z,16.83
2023-05-01T10:07:16.737Z,16.83
2023-05-01T10:09:46.804Z,16.87
2023-05-01T10:12:43.853Z,17.11
2023-05-01T10:15:25.280Z,17.37
2023-05-01T10:18:02.761Z,17.41
2023-05-01T10:20:34.748Z,17.47
2023-05-01T10:23:08.567Z,17.40
2023-05-01T10:25:50.370Z,17.24
2023-05-01T10:28:20.450Z,17.30
2023-05-01T10:30:54.322Z,17.54
2023-05-01T10:33:25.913Z,17.77
2023-05-01T10:36:01.071Z,17.98
2023-05-01T10:38:37.851Z,18.10
2023-05-01T10:41:09.492Z,18.23
2023-05-01T10:43:39.831Z,18.27
2023-05-01T10:46:34.547Z,18.42
2023-05-01T10:49:04.574Z,18.53
2023-05-01T10:51:39.341Z,18.58
2023-05-01T10:54:30.756Z,18.51
2023-05-01T10:57:05.491Z,18.21
2023-05-01T11:00:05.502Z,18.41
2023-05-01T11:02:38.272Z,18.38
2023-05-01T11:05:09.079Z,18.41
2023-05-01T11:07:39.426Z,18.51
2023-05-01T11:10:31.911Z,18.67
2023-05-01T11:13:02.325Z,18.86
2023-05-01T11:15:34.466Z,19.02
2023-05-01T11:18:08.016Z,19.14
2023-05-01T11:20:53.338Z,19.29
2023-05-01T11:23:29.079Z,19.43
2023-05-01T11:26:13.945Z,19.62
2023-05-01T11:28:45.155Z,19.71
2023-05-01T11:31:20.816Z,19.80
2023-05-01T11:33:53.757Z,19.83
2023-05-01T11:36:24.354Z,19.59
2023-05-01T11:38:57.043Z,19.55
2023-05-01T11:41:28.959Z,19.55
2023-05-01T11:44:01.762Z,19.64
2023-05-01T11:46:33.726Z,19.61
2023-05-01T11:49:08.961Z,19.64
2023-05-01T11:51:43.195Z,19.78
2023-05-01T11:54:15.777Z,19.75
2023-05-01T11:56:46.310Z,19.83
2023-05-01T11:59:19.478Z,19.78
2023-05-01T12:01:51.239Z,19.84
2023-05-01T12:04:32.568Z,19.84
2023-05-01T12:07:06.401Z,19.91
2023-05-01T12:09:44.158Z,20.03
2023-05-01T12:12:15.169Z,20.08
2023-05-01T12:14:45.459Z,20.17
2023-05-01T12:17:17.327Z,20.37
2023-05-01T12:19:56.640Z,20.58
2023-05-01T12:22:29.726Z,20.34
2023-05-01T12:25:00.946Z,20.74
2023-05-01T12:27:34.708Z,20.91
2023-05-01T12:30:05.102Z,21.15
2023-05-01T12:32:40.241Z,21.24
2023-05-01T12:35:20.515Z,21.09
2023-05-01T12:37:50.678Z,20.96
2023-05-01T12:40:23.899Z,20.98
2023-05-01T12:43:01.105Z,20.90
2023-05-01T12:45:33.783Z,20.95
2023-05-01T12:48:03.845Z,20.90
2023-05-01T12:50:41.976Z,20.82
2023-05-01T12:53:13.057Z,20.98
2023-05-01T12:55:50.865Z,21.02
2023-05-01T12:58:24.577Z,21.04
2023-05-01T13:00:56.870Z,20.95
2023-05-01T13:03:31.493Z,20.83
2023-05-01T13:06:12.688Z,20.85
2023-05-01T13:08:43.268Z,20.78
2023-05-01T13:11:16.668Z,20.72
2023-05-01T13:13:48.111Z,20.76
2023-05-01T13:16:20.441Z,20.87
2023-05-01T13:18:52.307Z,20.93
2023-05-01T13:21:28.533Z,21.10
2023-05-01T13:24:00.355Z,21.09
2023-05-01T13:26:33.072Z,20.94
2023-05-01T13:29:07.460Z,20.82
2023-05-01T13:31:39.364Z,20.78
2023-05-01T13:34:09.545Z,20.82
2023-05-01T13:36:44.339Z,20.75
2023-05-01T13:39:22.465Z,20.71
2023-05-01T13:41:54.109Z,20.65
2023-05-01T13:44:28.506Z,20.58
2023-05-01T13:47:04.517Z,20.55
2023-05-01T13:49:35.343Z,20.52
2023-05-01T13:52:08.346Z,20.62
2023-05-01T13:54:44.287Z,20.85
2023-05-01T13:57:15.906Z,21.05
2023-05-01T13:59:48.008Z,21.22
2023-05-01T14:02:23.522Z,21.33
2023-05-01T14:04:54.083Z,21.57
2023-05-01T14:07:28.113Z,21.69
2023-05-01T14:10:01.037Z,21.75
2023-05-01T14:12:35.771Z,21.74
2023-05-01T14:15:07.344Z,21.66
2023-05-01T14:17:41.741Z,21.59
2023-05-01T14:20:12.639Z,21.54
2023-05-01T14:22:48.486Z,21.65
2023-05-01T14:25:34.221Z,21.53
2023-05-01T14:28:12.007Z,21.52
2023-05-01T14:30:44.101Z,21.57
2023-05-01T14:33:15.878Z,21.49
2023-05-01T14:35:51.619Z,21.48
2023-05-01T14:38:38.840Z,21.32
2023-05-01T14:41:11.276Z,21.43
2023-05-01T14:43:44.561Z,21.48
2023-05-01T14:46:25.638Z,21.57
2023-05-01T14:49:00.453Z,21.47
2023-05-01T14:51:32.353Z,21.50
2023-05-01T14:54:06.248Z,21.49
2023-05-01T14:56:36.317Z,21.58
2023-05-01T14:59:06.817Z,21.37
2023-05-01T15:01:38.617Z,21.53
2023-05-01T15:04:13.312Z,21.60
2023-05-01T15:06:43.544Z,21.65
2023-05-01T15:09:16.323Z,21.73
2023-05-01T15:12:07.389Z,21.70
2023-05-01T15:14:37.497Z,21.69
2023-05-01T15:17:07.710Z,21.76
2023-05-01T15:19:37.738Z,21.71
2023-05-01T15:22:11.427Z,21.93
2023-05-01T15:24:44.318Z,21.96
2023-05-01T15:27:14.366Z,21.99
2023-05-01T15:29:44.756Z,21.89
2023-05-01T15:32:15.362Z,21.92
2023-05-01T15:34:46.075Z,21.89
2023-05-01T15:37:16.436Z,21.91
2023-05-01T15:39:49.223Z,21.75
2023-05-01T15:42:20.815Z,21.55
2023-05-01T15:44:51.200Z,21.32
2023-05-01T15:47:21.801Z,21.26
2023-05-01T15:49:52.217Z,21.28
2023-05-01T15:52:22.432Z,21.33
2023-05-01T15:54:56.529Z,21.32
2023-05-01T15:57:27.751Z,21.27
2023-05-01T15:59:59.450Z,21.22
2023-05-01T16:02:33.944Z,21.21
2023-05-01T16:05:04.711Z,21.21
2023-05-01T16:07:36.898Z,21.11
2023-05-01T16:10:11.804Z,21.07
2023-05-01T16:12:43.146Z,20.99
2023-05-01T16:15:15.195Z,20.86
2023-05-01T16:17:46.908Z,20.69
2023-05-01T16:20:17.465Z,20.60
2023-05-01T16:22:48.194Z,20.45
2023-05-01T16:25:26.135Z,20.30
2023-05-01T16:27:57.434Z,20.17
2023-05-01T16:30:28.509Z,20.06
2023-05-01T16:32:58.516Z,20.03
2023-05-01T16:35:30.664Z,20.11
2023-05-01T16:38:02.976Z,20.18
2023-05-01T16:40:35.670Z,20.17
2023-05-01T16:43:07.708Z,20.19
2023-05-01T16:45:47.229Z,20.21
2023-05-01T16:48:26.285Z,20.21
2023-05-01T16:50:57.151Z,20.16
2023-05-01T16:53:27.654Z,19.89
2023-05-01T16:56:02.539Z,19.89
2023-05-01T16:58:36.539Z,19.75
2023-05-01T17:01:14.046Z,19.66
2023-05-01T17:03:44.567Z,19.52
2023-05-01T17:06:14.639Z,19.49
2023-05-01T17:08:45.849Z,19.52
2023-05-01T17:11:19.185Z,19.53
2023-05-01T17:13:49.300Z,19.52
2023-05-01T17:16:19.724Z,19.39
2023-05-01T17:18:50.825Z,19.48
2023-05-01T17:21:31.058Z,19.47
2023-05-01T17:24:01.229Z,19.48
2023-05-01T17:26:34.329Z,19.32
2023-05-01T17:29:06.201Z,19.33
2023-05-01T17:31:36.817Z,19.21
2023-05-01T17:34:06.975Z,19.08
2023-05-01T17:36:38.275Z,18.98
2023-05-01T17:39:10.736Z,18.90
2023-05-01T17:41:43.741Z,18.80
2023-05-01T17:44:14.191Z,18.72
2023-05-01T17:46:44.511Z,18.65
2023-05-01T17:49:14.674Z,18.57
2023-05-01T17:51:45.495Z,18.53
2023-05-01T17:54:16.837Z,18.46
2023-05-01T17:56:49.560Z,18.46
2023-05-01T17:59:21.957Z,18.44
2023-05-01T18:01:54.782Z,18.42
2023-05-01T18:04:24.909Z,18.38
2023-05-01T18:06:56.519Z,18.34
2023-05-01T18:09:27.652Z,18.28
2023-05-01T18:12:00.380Z,18.20
2023-05-01T18:14:32.550Z,18.23
2023-05-01T18:17:05.474Z,18.20
2023-05-01T18:19:40.325Z,18.16
2023-05-01T18:22:12.657Z,18.13
2023-05-01T18:24:42.730Z,18.07
2023-05-01T18:27:15.734Z,18.12
2023-05-01T18:29:45.837Z,17.90
2023-05-01T18:32:17.672Z,18.05
2023-05-01T18:34:51.528Z,17.98
2023-05-01T18:37:26.024Z,17.92
2023-05-01T18:39:56.355Z,17.86
2023-05-01T18:42:29.294Z,17.81
2023-05-01T18:44:59.647Z,17.80
2023-05-01T18:47:29.816Z,17.74
2023-05-01T18:50:00.306Z,17.62
2023-05-01T18:52:33.011Z,17.55
2023-05-01T18:55:03.227Z,17.47
2023-05-01T18:57:36.232Z,17.41
2023-05-01T19:00:08.252Z,17.31
2023-05-01T19:02:39.394Z,17.23
2023-05-01T19:05:14.291Z,17.14
2023-05-01T19:07:44.743Z,17.11
2023-05-01T19:10:15.098Z,17.02
2023-05-01T19:12:47.838Z,16.85
2023-05-01T19:15:18.248Z,16.93
2023-05-01T19:17:49.029Z,16.88
2023-05-01T19:20:19.761Z,16.83
2023-05-01T19:22:50.036Z,16.81
2023-05-01T19:25:20.200Z,16.80
2023-05-01T19:27:52.945Z,16.78
2023-05-01T19:30:22.949Z,16.75
2023-05-01T19:32:54.181Z,16.71
2023-05-01T19:35:26.725Z,16.67
2023-05-01T19:37:58.050Z,16.64
2023-05-01T19:40:33.773Z,16.63
2023-05-01T19:43:06.843Z,16.59
2023-05-01T19:45:37.356Z,16.53
2023-05-01T19:48:10.492Z,16.50
2023-05-01T19:50:41.455Z,16.39
2023-05-01T19:53:11.858Z,16.40
2023-05-01T19:55:42.529Z,16.44
2023-05-01T19:58:15.237Z,16.42
2023-05-01T20:00:46.212Z,16.38
2023-05-01T20:03:21.408Z,16.34
2023-05-01T20:05:51.514Z,16.32
2023-05-01T20:08:25.836Z,16.27
2023-05-01T20:10:56.966Z,16.24
2023-05-01T20:13:30.528Z,16.19
2023-05-01T20:16:04.782Z,16.14
2023-05-01T20:18:39.237Z,16.08
2023-05-01T20:21:11.691Z,16.05
2023-05-01T20:23:42.006Z,15.93
2023-05-01T20:26:12.242Z,15.86
2023-05-01T20:28:45.182Z,15.73
2023-05-01T20:31:17.380Z,15.64
2023-05-01T20:33:47.693Z,15.52
2023-05-01T20:36:18.107Z,15.41
2023-05-01T20:38:48.810Z,15.35
2023-05-01T20:41:18.913Z,15.29
2023-05-01T20:43:52.103Z,15.21
2023-05-01T20:46:25.088Z,15.15
2023-05-01T20:48:55.333Z,15.12
2023-05-01T20:51:27.472Z,15.09
2023-05-01T20:53:57.712Z,15.01
2023-05-01T20:56:28.004Z,14.99
2023-05-01T20:59:00.780Z,14.97
2023-05-01T21:01:33.003Z,14.96
2023-05-01T21:04:06.598Z,14.93
2023-05-01T21:06:37.381Z,14.87
2023-05-01T21:09:12.956Z,14.78
2023-05-01T21:11:45.702Z,14.79
2023-05-01T21:14:19.316Z,14.81
2023-05-01T21:16:49.844Z,14.84
2023-05-01T21:19:26.865Z,14.85
2023-05-01T21:21:57.741Z,14.86
2023-05-01T21:24:31.978Z,14.84
2023-05-01T21:27:03.125Z,14.86
2023-05-01T21:29:36.592Z,14.87
2023-05-01T21:32:07.883Z,14.82
2023-05-01T21:34:38.600Z,14.87
2023-05-01T21:37:13.759Z,14.86
2023-05-01T21:39:45.003Z,14.78
2023-05-01T21:42:17.364Z,14.82
2023-05-01T21:44:50.074Z,14.81
2023-05-01T21:47:20.433Z,14.63
2023-05-01T21:49:50.783Z,14.77
2023-05-01T21:52:21.995Z,14.74
2023-05-01T21:54:52.262Z,14.75
2023-05-01T21:57:22.726Z,14.72
2023-05-01T21:59:58.750Z,14.67
2023-05-01T22:02:33.589Z,14.60
2023-05-01T22:05:03.787Z,14.59
2023-05-01T22:07:34.324Z,14.69
2023-05-01T22:10:07.014Z,14.65
2023-05-01T22:12:37.082Z,14.64
2023-05-01T22:15:11.256Z,14.53
2023-05-01T22:17:42.897Z,14.42
2023-05-01T22:20:15.237Z,14.44
2023-05-01T22:22:45.944Z,14.57
2023-05-01T22:25:16.911Z,14.55
2023-05-01T22:27:46.993Z,14.54
2023-05-01T22:30:19.558Z,14.45
2023-05-01T22:32:49.591Z,14.48
2023-05-01T22:35:23.312Z,14.44
2023-05-01T22:37:53.812Z,14.37
2023-05-01T22:40:24.335Z,14.29
2023-05-01T22:42:54.621Z,14.26
2023-05-01T22:45:27.543Z,14.23
2023-05-01T22:47:58.141Z,14.19
2023-05-01T22:50:30.519Z,14.19
2023-05-01T22:53:00.793Z,14.16
2023-05-01T22:55:32.656Z,14.14
2023-05-01T22:58:03.517Z,14.09
2023-05-01T23:00:36.726Z,14.13
2023-05-01T23:03:07.094Z,14.15
2023-05-01T23:05:37.870Z,14.16
2023-05-01T23:08:13.325Z,14.12
2023-05-01T23:10:44.573Z,14.05
2023-05-01T23:13:22.304Z,13.99
2023-05-01T23:15:55.276Z,13.93
2023-05-01T23:18:27.545Z,13.89
2023-05-01T23:20:57.573Z,13.80
2023-05-01T23:23:31.711Z,13.80
2023-05-01T23:26:01.621Z,13.72
2023-05-01T23:28:32.174Z,13.66
2023-05-01T23:31:06.521Z,13.69
2023-05-01T23:33:38.769Z,13.70
2023-05-01T23:36:12.645Z,13.69
2023-05-01T23:38:43.433Z,13.69
2023-05-01T23:41:13.822Z,13.74
2023-05-01T23:43:44.627Z,13.73
2023-05-01T23:46:18.000Z,13.75
2023-05-01T23:48:48.974Z,13.81
2023-05-01T23:51:19.389Z,13.82
2023-05-01T23:53:49.434Z,13.80
2023-05-01T23:56:19.550Z,13.81
2023-05-01T23:58:49.617Z,13.70
